sensor_id;sensor_type;location;lat;lon;timestamp;P1;durP1;ratioP1;P2;durP2;ratioP2
38166;SDS011;23980;51.902;12.832;2022-08-11T00:03:57;6.47;;;2.40;;
38166;SDS011;23980;51.902;12.832;2022-08-11T00:09:00;5.32;;;2.50;;
38166;SDS011;23980;51.902;12.832;2022-08-11T00:14:04;5.82;;;2.58;;
38166;SDS011;23980;51.902;12.832;2022-08-11T00:19:28;4.75;;;2.30;;
38166;SDS011;23980;51.902;12.832;2022-08-11T00:24:32;5.80;;;2.58;;
38166;SDS011;23980;51.902;12.832;2022-08-11T00:29:34;6.72;;;2.88;;
38166;SDS011;23980;51.902;12.832;2022-08-11T00:34:35;8.48;;;2.60;;
38166;SDS011;23980;51.902;12.832;2022-08-11T00:39:44;4.90;;;2.63;;
38166;SDS011;23980;51.902;12.832;2022-08-11T00:45:30;13.80;;;3.22;;
38166;SDS011;23980;51.902;12.832;2022-08-11T01:06:38;9.57;;;2.53;;
38166;SDS011;23980;51.902;12.832;2022-08-11T01:12:08;6.03;;;2.65;;
38166;SDS011;23980;51.902;12.832;2022-08-11T01:23:03;4.97;;;2.58;;
38166;SDS011;23980;51.902;12.832;2022-08-11T01:44:17;9.63;;;3.65;;
38166;SDS011;23980;51.902;12.832;2022-08-11T01:49:53;7.53;;;3.42;;
38166;SDS011;23980;51.902;12.832;2022-08-11T01:55:17;5.53;;;3.00;;
38166;SDS011;23980;51.902;12.832;2022-08-11T02:00:31;9.23;;;3.05;;
38166;SDS011;23980;51.902;12.832;2022-08-11T02:05:54;7.97;;;3.63;;
38166;SDS011;23980;51.902;12.832;2022-08-11T02:16:47;12.05;;;3.50;;
38166;SDS011;23980;51.902;12.832;2022-08-11T02:22:09;6.65;;;3.83;;
38166;SDS011;23980;51.902;12.832;2022-08-11T02:38:15;10.32;;;3.35;;
38166;SDS011;23980;51.902;12.832;2022-08-11T02:54:43;10.32;;;3.55;;
38166;SDS011;23980;51.902;12.832;2022-08-11T03:00:05;6.43;;;3.35;;
38166;SDS011;23980;51.902;12.832;2022-08-11T03:15:43;9.10;;;4.35;;
38166;SDS011;23980;51.902;12.832;2022-08-11T03:32:10;7.85;;;3.92;;
38166;SDS011;23980;51.902;12.832;2022-08-11T03:42:54;5.25;;;3.50;;
38166;SDS011;23980;51.902;12.832;2022-08-11T03:53:43;5.55;;;3.80;;
38166;SDS011;23980;51.902;12.832;2022-08-11T04:15:02;6.20;;;3.60;;
38166;SDS011;23980;51.902;12.832;2022-08-11T04:37:11;10.63;;;3.88;;
38166;SDS011;23980;51.902;12.832;2022-08-11T05:00:08;17.65;;;4.50;;
38166;SDS011;23980;51.902;12.832;2022-08-11T05:16:52;13.05;;;4.82;;
38166;SDS011;23980;51.902;12.832;2022-08-11T05:22:17;13.88;;;4.18;;
38166;SDS011;23980;51.902;12.832;2022-08-11T05:27:39;11.63;;;4.68;;
38166;SDS011;23980;51.902;12.832;2022-08-11T05:33:13;8.98;;;3.83;;
38166;SDS011;23980;51.902;12.832;2022-08-11T05:38:39;8.07;;;4.60;;
38166;SDS011;23980;51.902;12.832;2022-08-11T05:44:16;7.07;;;3.67;;
38166;SDS011;23980;51.902;12.832;2022-08-11T05:49:53;7.32;;;3.15;;
38166;SDS011;23980;51.902;12.832;2022-08-11T05:55:13;9.50;;;3.47;;
38166;SDS011;23980;51.902;12.832;2022-08-11T06:00:40;12.18;;;3.65;;
38166;SDS011;23980;51.902;12.832;2022-08-11T06:05:49;12.88;;;3.83;;
38166;SDS011;23980;51.902;12.832;2022-08-11T06:10:50;10.02;;;3.47;;
38166;SDS011;23980;51.902;12.832;2022-08-11T06:16:03;16.85;;;3.95;;
38166;SDS011;23980;51.902;12.832;2022-08-11T06:21:08;10.18;;;3.28;;
38166;SDS011;23980;51.902;12.832;2022-08-11T06:26:26;5.60;;;3.60;;
38166;SDS011;23980;51.902;12.832;2022-08-11T06:31:27;11.20;;;4.32;;
38166;SDS011;23980;51.902;12.832;2022-08-11T06:42:01;9.73;;;3.57;;
38166;SDS011;23980;51.902;12.832;2022-08-11T06:47:17;11.13;;;3.42;;
38166;SDS011;23980;51.902;12.832;2022-08-11T06:52:27;6.32;;;3.80;;
38166;SDS011;23980;51.902;12.832;2022-08-11T06:57:38;14.05;;;3.22;;
38166;SDS011;23980;51.902;12.832;2022-08-11T07:03:06;6.97;;;3.03;;
38166;SDS011;23980;51.902;12.832;2022-08-11T07:14:22;5.90;;;3.72;;
38166;SDS011;23980;51.902;12.832;2022-08-11T07:19:56;13.85;;;3.47;;
38166;SDS011;23980;51.902;12.832;2022-08-11T07:25:17;14.30;;;3.63;;
38166;SDS011;23980;51.902;12.832;2022-08-11T07:35:56;4.88;;;2.75;;
38166;SDS011;23980;51.902;12.832;2022-08-11T07:46:27;8.60;;;2.95;;
38166;SDS011;23980;51.902;12.832;2022-08-11T07:51:46;8.80;;;3.20;;
38166;SDS011;23980;51.902;12.832;2022-08-11T07:57:11;8.93;;;3.13;;
38166;SDS011;23980;51.902;12.832;2022-08-11T08:02:39;8.32;;;2.97;;
38166;SDS011;23980;51.902;12.832;2022-08-11T08:08:03;5.97;;;2.97;;
38166;SDS011;23980;51.902;12.832;2022-08-11T08:13:32;11.43;;;2.72;;
38166;SDS011;23980;51.902;12.832;2022-08-11T08:18:53;5.78;;;2.67;;
38166;SDS011;23980;51.902;12.832;2022-08-11T08:23:55;8.75;;;3.20;;
38166;SDS011;23980;51.902;12.832;2022-08-11T08:29:00;7.95;;;3.33;;
38166;SDS011;23980;51.902;12.832;2022-08-11T08:34:27;10.23;;;2.58;;
38166;SDS011;23980;51.902;12.832;2022-08-11T08:39:27;10.57;;;2.70;;
38166;SDS011;23980;51.902;12.832;2022-08-11T08:44:33;7.82;;;2.90;;
38166;SDS011;23980;51.902;12.832;2022-08-11T08:49:36;6.95;;;2.75;;
38166;SDS011;23980;51.902;12.832;2022-08-11T08:54:38;9.85;;;2.67;;
38166;SDS011;23980;51.902;12.832;2022-08-11T08:59:43;8.55;;;2.85;;
38166;SDS011;23980;51.902;12.832;2022-08-11T09:04:45;10.93;;;2.67;;
38166;SDS011;23980;51.902;12.832;2022-08-11T09:09:47;16.13;;;3.67;;
38166;SDS011;23980;51.902;12.832;2022-08-11T09:14:49;5.88;;;2.97;;
38166;SDS011;23980;51.902;12.832;2022-08-11T09:25:19;5.30;;;2.38;;
38166;SDS011;23980;51.902;12.832;2022-08-11T09:30:40;8.07;;;2.35;;
38166;SDS011;23980;51.902;12.832;2022-08-11T09:35:41;7.60;;;2.13;;
38166;SDS011;23980;51.902;12.832;2022-08-11T09:40:46;5.30;;;1.80;;
38166;SDS011;23980;51.902;12.832;2022-08-11T09:45:56;7.38;;;2.08;;
38166;SDS011;23980;51.902;12.832;2022-08-11T09:50:58;8.35;;;2.20;;
38166;SDS011;23980;51.902;12.832;2022-08-11T09:56:00;5.43;;;1.75;;
38166;SDS011;23980;51.902;12.832;2022-08-11T10:01:21;9.90;;;1.80;;
38166;SDS011;23980;51.902;12.832;2022-08-11T10:06:28;7.88;;;1.92;;
38166;SDS011;23980;51.902;12.832;2022-08-11T10:11:48;4.57;;;1.85;;
38166;SDS011;23980;51.902;12.832;2022-08-11T10:16:53;3.22;;;1.42;;
38166;SDS011;23980;51.902;12.832;2022-08-11T10:21:54;9.23;;;1.85;;
38166;SDS011;23980;51.902;12.832;2022-08-11T10:27:16;5.55;;;1.95;;
38166;SDS011;23980;51.902;12.832;2022-08-11T10:32:19;4.20;;;1.60;;
38166;SDS011;23980;51.902;12.832;2022-08-11T10:37:40;11.20;;;1.75;;
38166;SDS011;23980;51.902;12.832;2022-08-11T10:42:43;4.95;;;1.48;;
38166;SDS011;23980;51.902;12.832;2022-08-11T10:48:07;4.57;;;1.52;;
38166;SDS011;23980;51.902;12.832;2022-08-11T10:53:17;5.38;;;1.67;;
38166;SDS011;23980;51.902;12.832;2022-08-11T10:58:37;5.95;;;1.70;;
38166;SDS011;23980;51.902;12.832;2022-08-11T11:03:49;3.03;;;1.50;;
38166;SDS011;23980;51.902;12.832;2022-08-11T11:09:02;6.18;;;1.40;;
38166;SDS011;23980;51.902;12.832;2022-08-11T11:14:14;5.75;;;1.58;;
38166;SDS011;23980;51.902;12.832;2022-08-11T11:19:42;4.40;;;1.48;;
38166;SDS011;23980;51.902;12.832;2022-08-11T11:30:07;5.10;;;2.40;;
38166;SDS011;23980;51.902;12.832;2022-08-11T11:40:26;26.80;;;2.03;;
38166;SDS011;23980;51.902;12.832;2022-08-11T11:45:30;2.28;;;1.02;;
38166;SDS011;23980;51.902;12.832;2022-08-11T11:50:34;5.77;;;1.37;;
38166;SDS011;23980;51.902;12.832;2022-08-11T11:55:37;2.03;;;1.10;;
38166;SDS011;23980;51.902;12.832;2022-08-11T12:00:38;3.28;;;1.60;;
38166;SDS011;23980;51.902;12.832;2022-08-11T12:11:25;5.28;;;1.55;;
38166;SDS011;23980;51.902;12.832;2022-08-11T12:17:04;4.35;;;1.60;;
38166;SDS011;23980;51.902;12.832;2022-08-11T12:22:06;3.90;;;1.80;;
38166;SDS011;23980;51.902;12.832;2022-08-11T12:27:26;5.68;;;1.30;;
38166;SDS011;23980;51.902;12.832;2022-08-11T12:32:31;6.20;;;1.48;;
38166;SDS011;23980;51.902;12.832;2022-08-11T12:43:09;3.35;;;1.40;;
38166;SDS011;23980;51.902;12.832;2022-08-11T12:48:42;4.13;;;1.40;;
38166;SDS011;23980;51.902;12.832;2022-08-11T12:54:19;5.25;;;1.27;;
38166;SDS011;23980;51.902;12.832;2022-08-11T12:59:40;3.50;;;1.48;;
38166;SDS011;23980;51.902;12.832;2022-08-11T13:05:18;5.30;;;1.50;;
38166;SDS011;23980;51.902;12.832;2022-08-11T13:10:31;6.68;;;1.45;;
38166;SDS011;23980;51.902;12.832;2022-08-11T13:16:00;6.03;;;1.27;;
38166;SDS011;23980;51.902;12.832;2022-08-11T13:21:02;6.43;;;1.45;;
38166;SDS011;23980;51.902;12.832;2022-08-11T13:26:04;3.83;;;1.20;;
38166;SDS011;23980;51.902;12.832;2022-08-11T13:31:07;4.85;;;1.60;;
38166;SDS011;23980;51.902;12.832;2022-08-11T13:36:23;3.90;;;1.70;;
38166;SDS011;23980;51.902;12.832;2022-08-11T13:41:27;6.40;;;1.40;;
38166;SDS011;23980;51.902;12.832;2022-08-11T13:46:38;4.25;;;1.27;;
38166;SDS011;23980;51.902;12.832;2022-08-11T13:51:39;6.13;;;2.17;;
38166;SDS011;23980;51.902;12.832;2022-08-11T13:56:41;7.78;;;1.80;;
38166;SDS011;23980;51.902;12.832;2022-08-11T14:02:04;10.82;;;1.70;;
38166;SDS011;23980;51.902;12.832;2022-08-11T14:07:08;5.70;;;1.50;;
38166;SDS011;23980;51.902;12.832;2022-08-11T14:12:26;5.70;;;1.92;;
38166;SDS011;23980;51.902;12.832;2022-08-11T14:17:50;6.57;;;1.42;;
38166;SDS011;23980;51.902;12.832;2022-08-11T14:22:51;3.50;;;1.73;;
38166;SDS011;23980;51.902;12.832;2022-08-11T14:27:52;4.38;;;1.58;;
38166;SDS011;23980;51.902;12.832;2022-08-11T14:32:56;7.40;;;1.80;;
38166;SDS011;23980;51.902;12.832;2022-08-11T14:37:57;7.40;;;1.90;;
38166;SDS011;23980;51.902;12.832;2022-08-11T14:42:59;5.53;;;1.63;;
38166;SDS011;23980;51.902;12.832;2022-08-11T14:48:19;5.90;;;1.90;;
38166;SDS011;23980;51.902;12.832;2022-08-11T14:53:20;9.88;;;2.30;;
38166;SDS011;23980;51.902;12.832;2022-08-11T14:58:35;7.00;;;1.90;;
38166;SDS011;23980;51.902;12.832;2022-08-11T15:03:36;8.88;;;2.17;;
38166;SDS011;23980;51.902;12.832;2022-08-11T15:08:50;9.93;;;1.88;;
38166;SDS011;23980;51.902;12.832;2022-08-11T15:13:54;8.83;;;3.03;;
38166;SDS011;23980;51.902;12.832;2022-08-11T15:18:55;7.55;;;1.88;;
38166;SDS011;23980;51.902;12.832;2022-08-11T15:23:57;55.72;;;6.03;;
38166;SDS011;23980;51.902;12.832;2022-08-11T15:29:19;5.03;;;2.10;;
38166;SDS011;23980;51.902;12.832;2022-08-11T15:34:41;15.15;;;2.00;;
38166;SDS011;23980;51.902;12.832;2022-08-11T15:45:36;9.80;;;2.17;;
38166;SDS011;23980;51.902;12.832;2022-08-11T15:50:52;5.85;;;1.98;;
38166;SDS011;23980;51.902;12.832;2022-08-11T15:55:57;6.75;;;1.75;;
38166;SDS011;23980;51.902;12.832;2022-08-11T16:01:01;8.48;;;5.28;;
38166;SDS011;23980;51.902;12.832;2022-08-11T16:06:24;7.47;;;1.80;;
38166;SDS011;23980;51.902;12.832;2022-08-11T16:11:26;4.68;;;2.90;;
38166;SDS011;23980;51.902;12.832;2022-08-11T16:16:29;9.00;;;2.20;;
38166;SDS011;23980;51.902;12.832;2022-08-11T16:21:33;73.60;;;6.05;;
38166;SDS011;23980;51.902;12.832;2022-08-11T16:26:36;12.98;;;3.72;;
38166;SDS011;23980;51.902;12.832;2022-08-11T16:31:41;3.22;;;1.70;;
38166;SDS011;23980;51.902;12.832;2022-08-11T16:37:04;3.80;;;2.08;;
38166;SDS011;23980;51.902;12.832;2022-08-11T16:42:23;8.65;;;2.25;;
38166;SDS011;23980;51.902;12.832;2022-08-11T16:47:42;8.07;;;1.73;;
38166;SDS011;23980;51.902;12.832;2022-08-11T16:52:45;4.15;;;1.80;;
38166;SDS011;23980;51.902;12.832;2022-08-11T16:57:46;6.80;;;2.85;;
38166;SDS011;23980;51.902;12.832;2022-08-11T17:03:05;8.88;;;1.85;;
38166;SDS011;23980;51.902;12.832;2022-08-11T17:08:29;12.20;;;4.75;;
38166;SDS011;23980;51.902;12.832;2022-08-11T17:13:57;13.70;;;7.13;;
38166;SDS011;23980;51.902;12.832;2022-08-11T17:24:06;16.52;;;9.23;;
38166;SDS011;23980;51.902;12.832;2022-08-11T17:29:13;11.73;;;6.65;;
38166;SDS011;23980;51.902;12.832;2022-08-11T17:34:14;10.20;;;4.30;;
38166;SDS011;23980;51.902;12.832;2022-08-11T17:39:33;9.75;;;4.00;;
38166;SDS011;23980;51.902;12.832;2022-08-11T17:44:34;7.55;;;3.00;;
38166;SDS011;23980;51.902;12.832;2022-08-11T17:50:03;6.15;;;2.05;;
38166;SDS011;23980;51.902;12.832;2022-08-11T17:55:06;9.95;;;2.15;;
38166;SDS011;23980;51.902;12.832;2022-08-11T18:00:37;6.88;;;2.70;;
38166;SDS011;23980;51.902;12.832;2022-08-11T18:05:49;5.65;;;2.25;;
38166;SDS011;23980;51.902;12.832;2022-08-11T18:16:29;5.93;;;1.38;;
38166;SDS011;23980;51.902;12.832;2022-08-11T18:21:49;3.33;;;1.27;;
38166;SDS011;23980;51.902;12.832;2022-08-11T18:27:10;4.13;;;1.23;;
38166;SDS011;23980;51.902;12.832;2022-08-11T18:32:42;3.15;;;1.33;;
38166;SDS011;23980;51.902;12.832;2022-08-11T18:38:03;5.70;;;1.33;;
38166;SDS011;23980;51.902;12.832;2022-08-11T18:43:26;4.28;;;1.20;;
38166;SDS011;23980;51.902;12.832;2022-08-11T18:48:49;5.47;;;1.70;;
38166;SDS011;23980;51.902;12.832;2022-08-11T18:54:11;2.97;;;0.90;;
38166;SDS011;23980;51.902;12.832;2022-08-11T18:59:34;6.97;;;1.20;;
38166;SDS011;23980;51.902;12.832;2022-08-11T19:04:57;2.25;;;1.00;;
38166;SDS011;23980;51.902;12.832;2022-08-11T19:10:19;5.10;;;1.33;;
38166;SDS011;23980;51.902;12.832;2022-08-11T19:15:39;5.22;;;1.50;;
38166;SDS011;23980;51.902;12.832;2022-08-11T19:20:59;5.07;;;1.23;;
38166;SDS011;23980;51.902;12.832;2022-08-11T19:26:20;4.32;;;1.42;;
38166;SDS011;23980;51.902;12.832;2022-08-11T19:31:42;5.43;;;1.30;;
38166;SDS011;23980;51.902;12.832;2022-08-11T19:42:23;7.85;;;1.33;;
38166;SDS011;23980;51.902;12.832;2022-08-11T19:47:45;3.85;;;0.95;;
38166;SDS011;23980;51.902;12.832;2022-08-11T19:53:05;2.78;;;1.20;;
38166;SDS011;23980;51.902;12.832;2022-08-11T19:58:25;4.07;;;1.40;;
38166;SDS011;23980;51.902;12.832;2022-08-11T20:03:46;2.50;;;1.27;;
38166;SDS011;23980;51.902;12.832;2022-08-11T20:09:11;5.93;;;1.27;;
38166;SDS011;23980;51.902;12.832;2022-08-11T20:14:34;5.22;;;1.33;;
38166;SDS011;23980;51.902;12.832;2022-08-11T20:19:56;5.63;;;1.10;;
38166;SDS011;23980;51.902;12.832;2022-08-11T20:25:17;9.23;;;1.52;;
38166;SDS011;23980;51.902;12.832;2022-08-11T20:30:38;5.38;;;1.23;;
38166;SDS011;23980;51.902;12.832;2022-08-11T20:35:58;5.25;;;1.30;;
38166;SDS011;23980;51.902;12.832;2022-08-11T20:41:18;3.42;;;1.65;;
38166;SDS011;23980;51.902;12.832;2022-08-11T20:46:40;3.55;;;1.27;;
38166;SDS011;23980;51.902;12.832;2022-08-11T20:52:01;3.70;;;1.50;;
38166;SDS011;23980;51.902;12.832;2022-08-11T21:02:57;3.03;;;1.60;;
38166;SDS011;23980;51.902;12.832;2022-08-11T21:08:26;2.92;;;1.35;;
38166;SDS011;23980;51.902;12.832;2022-08-11T21:13:48;4.90;;;1.45;;
38166;SDS011;23980;51.902;12.832;2022-08-11T21:19:10;3.35;;;1.35;;
38166;SDS011;23980;51.902;12.832;2022-08-11T21:24:33;4.68;;;1.50;;
38166;SDS011;23980;51.902;12.832;2022-08-11T21:29:56;2.60;;;1.40;;
38166;SDS011;23980;51.902;12.832;2022-08-11T21:35:18;8.80;;;1.33;;
38166;SDS011;23980;51.902;12.832;2022-08-11T21:40:39;8.60;;;1.55;;
38166;SDS011;23980;51.902;12.832;2022-08-11T21:46:00;2.67;;;1.33;;
38166;SDS011;23980;51.902;12.832;2022-08-11T21:51:24;4.63;;;1.58;;
38166;SDS011;23980;51.902;12.832;2022-08-11T21:56:50;3.50;;;1.45;;
38166;SDS011;23980;51.902;12.832;2022-08-11T22:02:19;2.75;;;1.40;;
38166;SDS011;23980;51.902;12.832;2022-08-11T22:07:40;4.43;;;1.40;;
38166;SDS011;23980;51.902;12.832;2022-08-11T22:13:00;5.13;;;1.60;;
38166;SDS011;23980;51.902;12.832;2022-08-11T22:18:26;2.47;;;1.20;;
38166;SDS011;23980;51.902;12.832;2022-08-11T22:23:51;7.10;;;1.40;;
38166;SDS011;23980;51.902;12.832;2022-08-11T22:29:11;3.65;;;1.60;;
38166;SDS011;23980;51.902;12.832;2022-08-11T22:34:33;3.20;;;1.40;;
38166;SDS011;23980;51.902;12.832;2022-08-11T22:39:55;8.48;;;1.92;;
38166;SDS011;23980;51.902;12.832;2022-08-11T22:45:19;5.25;;;1.55;;
38166;SDS011;23980;51.902;12.832;2022-08-11T22:50:39;7.13;;;2.95;;
38166;SDS011;23980;51.902;12.832;2022-08-11T22:55:59;3.95;;;1.60;;
38166;SDS011;23980;51.902;12.832;2022-08-11T23:01:18;7.15;;;1.77;;
38166;SDS011;23980;51.902;12.832;2022-08-11T23:06:37;5.78;;;1.85;;
38166;SDS011;23980;51.902;12.832;2022-08-11T23:11:57;5.10;;;1.60;;
38166;SDS011;23980;51.902;12.832;2022-08-11T23:17:17;7.85;;;1.63;;
38166;SDS011;23980;51.902;12.832;2022-08-11T23:27:56;4.63;;;1.48;;
38166;SDS011;23980;51.902;12.832;2022-08-11T23:33:18;5.53;;;1.48;;
38166;SDS011;23980;51.902;12.832;2022-08-11T23:38:41;3.92;;;1.80;;
38166;SDS011;23980;51.902;12.832;2022-08-11T23:44:01;4.70;;;1.58;;
38166;SDS011;23980;51.902;12.832;2022-08-11T23:49:21;6.15;;;1.73;;
